Time;durP1;ratioP1;P1;durP2;ratioP2;P2;SDS_P1;SDS_P2;PMS_P1;PMS_P2;Temp;Humidity;BMP_temperature;BMP_pressure;BME280_temperature;BME280_humidity;BME280_pressure;Samples;Min_cycle;Max_cycle;Signal;HPM_P1;HPM_P2
2023/12/03 00:00:42;;;;;;;;;;;;;;;5.43;nan;101545.50;5085256;28;19979;-81
2023/12/03 00:03:08;;;;;;;;;;;;;;;5.44;nan;101555.94;5081615;28;19920;-82
2023/12/03 00:05:34;;;;;;;;;;;;;;;5.44;nan;101552.47;5086586;28;19951;-82
2023/12/03 00:08:00;;;;;;;;;;;;;;;5.45;nan;101556.75;5081945;28;19924;-82
2023/12/03 00:10:25;;;;;;;;;;;;;;;5.45;nan;101554.09;5084155;28;19920;-82
2023/12/03 00:12:51;;;;;;;;;;;;;;;5.47;nan;101549.41;5080809;28;19958;-82
2023/12/03 00:15:16;;;;;;;;;;;;;;;5.44;nan;101549.78;5087768;28;19920;-82
2023/12/03 00:17:41;;;;;;;;;;;;;;;5.43;nan;101548.97;5085572;28;19920;-82
2023/12/03 00:20:07;;;;;;;;;;;;;;;5.39;nan;101553.03;5085590;28;20422;-81
2023/12/03 00:22:32;;;;;;;;;;;;;;;5.37;nan;101556.88;5080960;28;19967;-82
2023/12/03 00:24:58;;;;;;;;;;;;;;;5.36;nan;101552.59;5084730;28;20002;-82
2023/12/03 00:27:23;;;;;;;;;;;;;;;5.33;nan;101552.97;5087106;28;20446;-82
2023/12/03 00:29:49;;;;;;;;;;;;;;;5.35;nan;101556.25;5088020;28;20269;-82
2023/12/03 00:32:14;;;;;;;;;;;;;;;5.34;nan;101555.44;5090948;28;19942;-82
2023/12/03 00:34:40;;;;;;;;;;;;;;;5.31;nan;101555.84;5081679;28;19926;-82
2023/12/03 00:37:06;;;;;;;;;;;;;;;5.30;nan;101562.16;5083194;28;20295;-81
2023/12/03 00:39:31;;;;;;;;;;;;;;;5.29;nan;101565.03;5091820;28;20007;-82
2023/12/03 00:41:56;;;;;;;;;;;;;;;5.25;nan;101563.78;5088416;28;20380;-81
2023/12/03 00:44:21;;;;;;;;;;;;;;;5.21;nan;101558.03;5088101;28;20381;-82
2023/12/03 00:46:47;;;;;;;;;;;;;;;5.20;nan;101561.66;5087829;28;19923;-82
2023/12/03 00:49:12;;;;;;;;;;;;;;;5.22;nan;101562.31;5080655;28;19928;-81
2023/12/03 00:51:38;;;;;;;;;;;;;;;5.25;nan;101571.75;5084844;28;19922;-82
2023/12/03 00:54:03;;;;;;;;;;;;;;;5.26;nan;101576.84;5092782;28;20026;-81
2023/12/03 00:56:28;;;;;;;;;;;;;;;5.27;nan;101580.34;5084554;28;19916;-82
2023/12/03 00:58:53;;;;;;;;;;;;;;;5.26;nan;101578.69;5092952;28;20002;-81
2023/12/03 01:01:19;;;;;;;;;;;;;;;5.26;nan;101578.69;5089752;28;19920;-82
2023/12/03 01:03:45;;;;;;;;;;;;;;;5.24;nan;101578.88;5091043;28;19916;-82
2023/12/03 01:06:10;;;;;;;;;;;;;;;5.20;nan;101588.22;5071287;28;19959;-83
2023/12/03 01:08:35;;;;;;;;;;;;;;;5.19;nan;101599.06;5086826;28;20003;-82
2023/12/03 01:11:03;;;;;;;;;;;;;;;5.14;nan;101605.78;5089124;28;19926;-82
2023/12/03 01:13:28;;;;;;;;;;;;;;;5.11;nan;101600.84;5082879;28;19927;-82
2023/12/03 01:15:54;;;;;;;;;;;;;;;5.09;nan;101602.88;5081842;28;19920;-82
2023/12/03 01:18:19;;;;;;;;;;;;;;;5.04;nan;101605.28;5086436;28;19931;-82
2023/12/03 01:20:44;;;;;;;;;;;;;;;5.04;nan;101612.44;5086809;28;20005;-82
2023/12/03 01:23:10;;;;;;;;;;;;;;;4.98;nan;101606.03;5088558;28;19928;-82
2023/12/03 01:25:35;;;;;;;;;;;;;;;4.95;nan;101609.06;5073399;28;20269;-82
2023/12/03 01:28:00;;;;;;;;;;;;;;;4.93;nan;101613.75;5087910;28;20281;-82
2023/12/03 01:30:25;;;;;;;;;;;;;;;4.89;nan;101620.47;5089148;28;19920;-82
2023/12/03 01:32:51;;;;;;;;;;;;;;;4.89;nan;101620.47;5087716;28;20437;-82
2023/12/03 01:35:16;;;;;;;;;;;;;;;4.88;nan;101618.81;5092020;28;20315;-82
2023/12/03 01:37:42;;;;;;;;;;;;;;;4.87;nan;101622.50;5092656;28;20485;-82
2023/12/03 01:40:08;;;;;;;;;;;;;;;4.86;nan;101618.19;5087848;28;19931;-82
2023/12/03 01:42:33;;;;;;;;;;;;;;;4.85;nan;101629.81;5089202;28;20010;-82
2023/12/03 01:44:59;;;;;;;;;;;;;;;4.82;nan;101636.31;5089617;28;21150;-82
2023/12/03 01:47:24;;;;;;;;;;;;;;;4.79;nan;101636.69;5086490;28;19919;-83
2023/12/03 01:49:49;;;;;;;;;;;;;;;4.79;nan;101642.00;5087751;28;19939;-82
2023/12/03 01:52:15;;;;;;;;;;;;;;;4.76;nan;101645.03;5086440;28;19924;-82
2023/12/03 01:54:42;;;;;;;;;;;;;;;4.74;nan;101647.06;5086047;28;19924;-82
2023/12/03 01:57:08;;;;;;;;;;;;;;;4.72;nan;101645.59;5086563;28;19916;-82
2023/12/03 01:59:33;;;;;;;;;;;;;;;4.71;nan;101659.88;5086869;28;20418;-82
2023/12/03 02:01:58;;;;;;;;;;;;;;;4.66;nan;101655.13;5090350;28;19973;-82
2023/12/03 02:04:24;;;;;;;;;;;;;;;4.64;nan;101654.47;5090163;28;19950;-81
2023/12/03 02:06:49;;;;;;;;;;;;;;;4.64;nan;101658.97;5088772;28;19920;-82
2023/12/03 02:09:16;;;;;;;;;;;;;;;4.59;nan;101661.38;5088213;28;19924;-82
2023/12/03 02:11:42;;;;;;;;;;;;;;;4.53;nan;101663.75;5090716;28;20380;-82
2023/12/03 02:14:09;;;;;;;;;;;;;;;4.50;nan;101658.00;5086968;28;20430;-82
2023/12/03 02:16:35;;;;;;;;;;;;;;;4.47;nan;101661.84;5086027;28;19931;-81
2023/12/03 02:19:00;;;;;;;;;;;;;;;4.45;nan;101671.81;5088831;28;19920;-82
2023/12/03 02:21:26;;;;;;;;;;;;;;;4.41;nan;101673.19;5074873;28;20341;-82
2023/12/03 02:23:51;;;;;;;;;;;;;;;4.38;nan;101670.09;5086192;28;19927;-82
2023/12/03 02:26:16;;;;;;;;;;;;;;;4.38;nan;101675.41;5087899;28;20323;-82
2023/12/03 02:28:42;;;;;;;;;;;;;;;4.38;nan;101670.91;5085343;28;20398;-81
2023/12/03 02:31:07;;;;;;;;;;;;;;;4.36;nan;101678.25;5085945;28;20001;-83
2023/12/03 02:33:32;;;;;;;;;;;;;;;4.34;nan;101674.13;5091400;28;20650;-82
2023/12/03 02:35:59;;;;;;;;;;;;;;;4.33;nan;101683.09;5089144;28;20332;-82
2023/12/03 02:38:25;;;;;;;;;;;;;;;4.32;nan;101682.28;5086633;28;19945;-82
2023/12/03 02:40:50;;;;;;;;;;;;;;;4.30;nan;101684.25;5084696;28;20024;-82
2023/12/03 02:43:15;;;;;;;;;;;;;;;4.28;nan;101683.63;5085976;28;19924;-82
2023/12/03 02:45:41;;;;;;;;;;;;;;;4.25;nan;101687.47;5085562;28;20368;-82
2023/12/03 02:48:06;;;;;;;;;;;;;;;4.18;nan;101691.88;5072427;28;20525;-82
2023/12/03 02:50:31;;;;;;;;;;;;;;;4.14;nan;101695.09;5092168;28;19960;-82
2023/12/03 02:52:57;;;;;;;;;;;;;;;4.11;nan;101696.25;5091536;28;20026;-82
2023/12/03 02:55:22;;;;;;;;;;;;;;;4.05;nan;101685.56;5087577;28;19920;-82
2023/12/03 02:57:47;;;;;;;;;;;;;;;3.99;nan;101692.41;5093205;28;20403;-82
2023/12/03 03:00:13;;;;;;;;;;;;;;;3.97;nan;101694.44;5088893;28;20003;-82
2023/12/03 03:02:38;;;;;;;;;;;;;;;3.93;nan;101699.25;5089528;28;19927;-82
2023/12/03 03:05:04;;;;;;;;;;;;;;;3.90;nan;101704.09;5091459;28;19955;-82
2023/12/03 03:07:30;;;;;;;;;;;;;;;3.88;nan;101706.94;5091167;28;19994;-82
2023/12/03 03:09:55;;;;;;;;;;;;;;;3.85;nan;101711.78;5090634;28;19939;-82
2023/12/03 03:12:20;;;;;;;;;;;;;;;3.80;nan;101717.63;5086310;28;19916;-82
2023/12/03 03:14:46;;;;;;;;;;;;;;;3.74;nan;101720.16;5087971;28;19931;-82
2023/12/03 03:17:11;;;;;;;;;;;;;;;3.71;nan;101715.22;5084306;28;19916;-82
2023/12/03 03:19:36;;;;;;;;;;;;;;;3.69;nan;101720.69;5093053;28;19931;-82
2023/12/03 03:22:02;;;;;;;;;;;;;;;3.65;nan;101724.72;5093364;28;19927;-82
2023/12/03 03:24:27;;;;;;;;;;;;;;;3.62;nan;101722.44;5086389;28;19931;-82
2023/12/03 03:26:52;;;;;;;;;;;;;;;3.57;nan;101733.53;5090797;28;19930;-81
2023/12/03 03:29:18;;;;;;;;;;;;;;;3.53;nan;101726.94;5093353;28;20054;-83
2023/12/03 03:31:44;;;;;;;;;;;;;;;3.50;nan;101729.97;5089902;28;19922;-82
2023/12/03 03:34:09;;;;;;;;;;;;;;;3.52;nan;101729.78;5086938;28;20712;-82
2023/12/03 03:36:35;;;;;;;;;;;;;;;3.52;nan;101729.78;5064688;28;19916;-82
2023/12/03 03:39:00;;;;;;;;;;;;;;;3.50;nan;101731.78;5085591;28;20404;-82
2023/12/03 03:41:26;;;;;;;;;;;;;;;3.50;nan;101734.44;5085305;28;20391;-81
2023/12/03 03:43:51;;;;;;;;;;;;;;;3.47;nan;101735.63;5087620;28;19965;-82
2023/12/03 03:46:16;;;;;;;;;;;;;;;3.47;nan;101748.03;5090378;28;20490;-82
2023/12/03 03:48:42;;;;;;;;;;;;;;;3.45;nan;101742.09;5085484;28;19959;-82
2023/12/03 03:51:07;;;;;;;;;;;;;;;3.42;nan;101743.28;5085855;28;19924;-82
2023/12/03 03:53:33;;;;;;;;;;;;;;;3.40;nan;101745.25;5089751;28;20328;-82
2023/12/03 03:55:58;;;;;;;;;;;;;;;3.38;nan;101751.75;5086474;28;20371;-82
2023/12/03 03:58:23;;;;;;;;;;;;;;;3.34;nan;101738.84;5085037;28;20398;-83
2023/12/03 04:00:49;;;;;;;;;;;;;;;3.32;nan;101748.81;5083401;28;20269;-82
2023/12/03 04:03:14;;;;;;;;;;;;;;;3.27;nan;101751.16;5084227;28;20590;-82
2023/12/03 04:05:40;;;;;;;;;;;;;;;3.22;nan;101748.19;5084664;28;19916;-82
2023/12/03 04:08:05;;;;;;;;;;;;;;;3.14;nan;101747.44;5083189;28;20376;-83
2023/12/03 04:10:30;;;;;;;;;;;;;;;3.08;nan;101750.78;5088355;28;19916;-83
2023/12/03 04:12:56;;;;;;;;;;;;;;;3.04;nan;101750.28;5088647;28;20391;-82
2023/12/03 04:15:21;;;;;;;;;;;;;;;3.01;nan;101753.28;5086480;28;19920;-82
2023/12/03 04:17:47;;;;;;;;;;;;;;;2.97;nan;101750.16;5087749;28;19955;-82
2023/12/03 04:20:12;;;;;;;;;;;;;;;2.96;nan;101758.28;5086252;28;19919;-83
2023/12/03 04:22:37;;;;;;;;;;;;;;;2.94;nan;101750.53;5092090;28;19923;-82
2023/12/03 04:25:03;;;;;;;;;;;;;;;2.89;nan;101754.69;5085607;28;19927;-83
2023/12/03 04:27:28;;;;;;;;;;;;;;;2.83;nan;101752.72;5089710;28;19927;-82
2023/12/03 04:29:53;;;;;;;;;;;;;;;2.78;nan;101755.06;5084403;28;19924;-83
2023/12/03 04:32:19;;;;;;;;;;;;;;;2.73;nan;101755.59;5089077;28;19923;-83
2023/12/03 04:34:44;;;;;;;;;;;;;;;2.70;nan;101748.81;5066781;28;19934;-82
2023/12/03 04:37:09;;;;;;;;;;;;;;;2.69;nan;101746.31;5088252;28;19924;-83
2023/12/03 04:39:35;;;;;;;;;;;;;;;2.66;nan;101754.59;5089973;28;20383;-84
2023/12/03 04:42:00;;;;;;;;;;;;;;;2.65;nan;101750.31;5091655;28;20416;-82
2023/12/03 04:44:26;;;;;;;;;;;;;;;2.65;nan;101748.50;5092636;28;20409;-83
2023/12/03 04:46:51;;;;;;;;;;;;;;;2.64;nan;101754.78;5095080;28;20025;-84
2023/12/03 04:49:16;;;;;;;;;;;;;;;2.63;nan;101749.66;5091669;28;19973;-83
2023/12/03 04:51:42;;;;;;;;;;;;;;;2.60;nan;101748.19;5088850;28;19924;-83
2023/12/03 04:54:07;;;;;;;;;;;;;;;2.60;nan;101761.41;5090050;28;19923;-83
2023/12/03 04:56:32;;;;;;;;;;;;;;;2.58;nan;101760.75;5088379;28;19931;-83
2023/12/03 04:58:58;;;;;;;;;;;;;;;2.57;nan;101761.75;5089303;28;19924;-83
2023/12/03 05:01:23;;;;;;;;;;;;;;;2.56;nan;101770.69;5090046;28;19927;-83
2023/12/03 05:03:48;;;;;;;;;;;;;;;2.57;nan;101761.75;5088477;28;19920;-82
2023/12/03 05:06:14;;;;;;;;;;;;;;;2.59;nan;101761.59;5091106;28;19924;-82
2023/12/03 05:08:39;;;;;;;;;;;;;;;2.65;nan;101769.66;5082757;28;20387;-83
2023/12/03 05:11:05;;;;;;;;;;;;;;;2.76;nan;101767.66;5083483;28;19923;-83
2023/12/03 05:13:34;;;;;;;;;;;;;;;2.86;nan;101761.13;5084066;28;20078;-82
2023/12/03 05:16:02;;;;;;;;;;;;;;;2.96;nan;101774.16;5088431;28;19923;-82
2023/12/03 05:18:27;;;;;;;;;;;;;;;3.06;nan;101771.31;5086637;28;19920;-82
2023/12/03 05:20:53;;;;;;;;;;;;;;;3.13;nan;101780.22;5083753;28;20392;-82
2023/12/03 05:23:18;;;;;;;;;;;;;;;3.22;nan;101784.44;5091483;28;19939;-82
2023/12/03 05:25:44;;;;;;;;;;;;;;;3.27;nan;101779.47;5089313;28;20348;-82
2023/12/03 05:28:09;;;;;;;;;;;;;;;3.32;nan;101779.75;5088847;28;20731;-82
2023/12/03 05:30:34;;;;;;;;;;;;;;;3.34;nan;101785.72;5083222;28;19920;-82
2023/12/03 05:33:00;;;;;;;;;;;;;;;3.38;nan;101783.53;5091681;28;19928;-82
2023/12/03 05:35:25;;;;;;;;;;;;;;;3.43;nan;101786.50;5087268;28;19916;-82
2023/12/03 05:37:50;;;;;;;;;;;;;;;3.50;nan;101787.44;5092342;28;19916;-82
2023/12/03 05:40:16;;;;;;;;;;;;;;;3.51;nan;101787.25;5089489;28;19920;-82
2023/12/03 05:42:41;;;;;;;;;;;;;;;3.49;nan;101785.78;5084934;28;19924;-82
2023/12/03 05:45:07;;;;;;;;;;;;;;;3.54;nan;101786.06;5087593;28;19931;-82
2023/12/03 05:47:33;;;;;;;;;;;;;;;3.55;nan;101788.53;5089013;28;20672;-82
2023/12/03 05:50:00;;;;;;;;;;;;;;;3.62;nan;101786.03;5085868;28;19920;-82
2023/12/03 05:52:25;;;;;;;;;;;;;;;3.67;nan;101793.44;5087204;28;20368;-82
2023/12/03 05:54:50;;;;;;;;;;;;;;;3.66;nan;101787.31;5087639;28;19974;-82
2023/12/03 05:57:15;;;;;;;;;;;;;;;3.68;nan;101801.22;5087910;28;20011;-82
2023/12/03 05:59:41;;;;;;;;;;;;;;;3.65;nan;101798.91;5083619;28;19916;-82
2023/12/03 06:02:06;;;;;;;;;;;;;;;3.64;nan;101803.41;5088553;28;19928;-82
2023/12/03 06:04:31;;;;;;;;;;;;;;;3.67;nan;101804.88;5089158;28;20754;-82
2023/12/03 06:06:57;;;;;;;;;;;;;;;3.72;nan;101801.69;5090750;28;19919;-82
2023/12/03 06:09:22;;;;;;;;;;;;;;;3.75;nan;101799.50;5072623;28;20399;-82
2023/12/03 06:11:47;;;;;;;;;;;;;;;3.78;nan;101796.50;5091207;28;19916;-82
2023/12/03 06:14:13;;;;;;;;;;;;;;;3.76;nan;101801.13;5083764;28;20139;-82
2023/12/03 06:16:38;;;;;;;;;;;;;;;3.75;nan;101803.97;5090708;28;20017;-81
2023/12/03 06:19:03;;;;;;;;;;;;;;;3.73;nan;101811.28;5091167;28;20392;-82
2023/12/03 06:21:29;;;;;;;;;;;;;;;3.77;nan;101808.13;5092118;28;20343;-82
2023/12/03 06:23:54;;;;;;;;;;;;;;;3.76;nan;101814.38;5094347;28;19924;-82
2023/12/03 06:26:20;;;;;;;;;;;;;;;3.76;nan;101816.22;5090513;28;19924;-82
2023/12/03 06:28:46;;;;;;;;;;;;;;;3.78;nan;101816.91;5091694;28;19919;-82
2023/12/03 06:31:11;;;;;;;;;;;;;;;3.79;nan;101818.53;5092636;28;19939;-82
2023/12/03 06:33:37;;;;;;;;;;;;;;;3.82;nan;101823.47;5083889;28;19920;-82
2023/12/03 06:36:02;;;;;;;;;;;;;;;3.86;nan;101830.06;5082112;28;19923;-82
2023/12/03 06:38:28;;;;;;;;;;;;;;;3.80;nan;101823.66;5088623;28;20022;-82
2023/12/03 06:40:53;;;;;;;;;;;;;;;3.81;nan;101830.63;5094585;28;19931;-82
2023/12/03 06:43:18;;;;;;;;;;;;;;;3.79;nan;101827.31;5072679;28;19915;-82
2023/12/03 06:45:44;;;;;;;;;;;;;;;3.75;nan;101835.78;5087615;28;19916;-82
2023/12/03 06:48:09;;;;;;;;;;;;;;;3.76;nan;101838.25;5091226;28;19919;-82
2023/12/03 06:50:34;;;;;;;;;;;;;;;3.81;nan;101832.44;5089091;28;19920;-82
2023/12/03 06:53:00;;;;;;;;;;;;;;;3.84;nan;101830.25;5088270;28;19920;-82
2023/12/03 06:55:26;;;;;;;;;;;;;;;3.89;nan;101849.09;5088323;28;19927;-82
2023/12/03 06:57:51;;;;;;;;;;;;;;;3.94;nan;101844.06;5094992;28;19920;-82
2023/12/03 07:00:17;;;;;;;;;;;;;;;3.98;nan;101854.34;5089221;28;19920;-82
2023/12/03 07:02:42;;;;;;;;;;;;;;;3.99;nan;101856.00;5094639;28;20013;-82
2023/12/03 07:05:07;;;;;;;;;;;;;;;4.00;nan;101855.00;5096067;28;20419;-82
2023/12/03 07:07:33;;;;;;;;;;;;;;;4.03;nan;101862.59;5086136;28;19924;-82
2023/12/03 07:09:58;;;;;;;;;;;;;;;4.02;nan;101856.47;5086838;28;19931;-81
2023/12/03 07:12:23;;;;;;;;;;;;;;;4.00;nan;101869.09;5087850;28;21837;-82
2023/12/03 07:14:49;;;;;;;;;;;;;;;4.00;nan;101869.09;5091055;28;19924;-82
2023/12/03 07:17:14;;;;;;;;;;;;;;;4.01;nan;101873.38;5087279;28;19924;-82
2023/12/03 07:19:46;;;;;;;;;;;;;;;4.01;nan;101872.56;5089869;28;19919;-82
2023/12/03 07:22:11;;;;;;;;;;;;;;;3.97;nan;101874.75;5082710;28;19921;-81
2023/12/03 07:24:40;;;;;;;;;;;;;;;3.97;nan;101880.06;5091382;28;19930;-82
2023/12/03 07:27:06;;;;;;;;;;;;;;;3.97;nan;101879.22;5093965;28;19922;-82
2023/12/03 07:29:32;;;;;;;;;;;;;;;3.98;nan;101881.69;5089157;28;20110;-82
2023/12/03 07:31:58;;;;;;;;;;;;;;;3.98;nan;101880.88;5091176;28;20391;-82
2023/12/03 07:34:23;;;;;;;;;;;;;;;4.01;nan;101876.03;5072160;28;19966;-82
2023/12/03 07:36:48;;;;;;;;;;;;;;;4.00;nan;101889.47;5091193;28;19953;-82
2023/12/03 07:39:14;;;;;;;;;;;;;;;4.03;nan;101883.81;5061821;28;19917;-82
2023/12/03 07:41:40;;;;;;;;;;;;;;;4.03;nan;101886.47;5087315;28;19928;-81
2023/12/03 07:44:05;;;;;;;;;;;;;;;4.02;nan;101883.00;5090838;28;19948;-82
2023/12/03 07:46:33;;;;;;;;;;;;;;;4.08;nan;101892.06;5089976;28;21029;-83
2023/12/03 07:48:59;;;;;;;;;;;;;;;4.14;nan;101894.00;5087482;28;19971;-82
2023/12/03 07:51:24;;;;;;;;;;;;;;;4.16;nan;101897.31;5079885;28;19966;-82
2023/12/03 07:53:49;;;;;;;;;;;;;;;4.20;nan;101895.94;5079727;28;20042;-82
2023/12/03 07:56:15;;;;;;;;;;;;;;;4.23;nan;101896.41;5063459;28;20004;-82
2023/12/03 07:58:40;;;;;;;;;;;;;;;4.29;nan;101905.47;5080210;28;20031;-83
2023/12/03 08:01:06;;;;;;;;;;;;;;;4.37;nan;101896.63;5078959;28;20886;-82
2023/12/03 08:03:31;;;;;;;;;;;;;;;4.42;nan;101900.41;5079504;28;19920;-82
2023/12/03 08:05:57;;;;;;;;;;;;;;;4.47;nan;101913.94;5060485;28;20058;-83
2023/12/03 08:08:22;;;;;;;;;;;;;;;4.53;nan;101918.56;5078637;28;19969;-82
2023/12/03 08:10:48;;;;;;;;;;;;;;;4.60;nan;101915.16;5080581;28;19924;-82
2023/12/03 08:13:13;;;;;;;;;;;;;;;4.63;nan;101914.81;5058135;28;19924;-82
2023/12/03 08:15:38;;;;;;;;;;;;;;;4.70;nan;101919.22;5076764;28;19932;-82
2023/12/03 08:18:04;;;;;;;;;;;;;;;4.77;nan;101911.34;5077018;28;19924;-82
2023/12/03 08:20:29;;;;;;;;;;;;;;;4.83;nan;101921.25;5079099;28;21178;-82
2023/12/03 08:22:54;;;;;;;;;;;;;;;4.91;nan;101915.88;5079671;28;20137;-82
2023/12/03 08:25:20;;;;;;;;;;;;;;;4.97;nan;101915.13;5079873;28;19925;-83
2023/12/03 08:27:45;;;;;;;;;;;;;;;5.04;nan;101918.72;5079721;28;19942;-82
2023/12/03 08:30:10;;;;;;;;;;;;;;;5.14;nan;101927.22;5078468;28;19924;-83
2023/12/03 08:32:36;;;;;;;;;;;;;;;5.24;nan;101923.47;5075926;28;19998;-83
2023/12/03 08:35:04;;;;;;;;;;;;;;;5.35;nan;101917.69;5077332;28;21366;-83
2023/12/03 08:37:29;;;;;;;;;;;;;;;5.40;nan;101920.63;5076746;28;19924;-83
2023/12/03 08:39:54;;;;;;;;;;;;;;;5.41;nan;101925.75;5076523;28;19924;-83
2023/12/03 08:42:20;;;;;;;;;;;;;;;5.42;nan;101922.09;5076909;28;20481;-83
2023/12/03 08:44:45;;;;;;;;;;;;;;;5.46;nan;101926.00;5076122;28;19930;-83
2023/12/03 08:47:11;;;;;;;;;;;;;;;5.48;nan;101928.47;5059745;28;19932;-81
2023/12/03 08:49:36;;;;;;;;;;;;;;;5.45;nan;101929.69;5077485;28;20005;-83
2023/12/03 08:52:01;;;;;;;;;;;;;;;5.45;nan;101931.53;5078983;28;19916;-82
2023/12/03 08:54:27;;;;;;;;;;;;;;;5.43;nan;101930.88;5077071;28;19927;-83
2023/12/03 08:56:52;;;;;;;;;;;;;;;5.42;nan;101939.88;5060991;28;19924;-82
2023/12/03 08:59:19;;;;;;;;;;;;;;;5.43;nan;101939.69;5081336;28;19947;-82
2023/12/03 09:01:44;;;;;;;;;;;;;;;5.44;nan;101951.13;5078054;28;20408;-83
2023/12/03 09:04:12;;;;;;;;;;;;;;;5.45;nan;101944.81;5075961;28;19932;-83
2023/12/03 09:06:38;;;;;;;;;;;;;;;5.49;nan;101951.41;5076456;28;19917;-82
2023/12/03 09:09:03;;;;;;;;;;;;;;;5.56;nan;101952.28;5078364;28;20541;-82
2023/12/03 09:11:28;;;;;;;;;;;;;;;5.63;nan;101957.72;5077819;28;19924;-82
2023/12/03 09:13:54;;;;;;;;;;;;;;;5.65;nan;101959.19;5075214;28;20741;-82
2023/12/03 09:16:19;;;;;;;;;;;;;;;5.60;nan;101964.22;5074592;28;19924;-83
2023/12/03 09:18:46;;;;;;;;;;;;;;;5.58;nan;101966.25;5073797;28;19920;-82
2023/12/03 09:21:12;;;;;;;;;;;;;;;5.60;nan;101974.03;5057542;28;19928;-82
2023/12/03 09:23:38;;;;;;;;;;;;;;;5.59;nan;101972.41;5074275;28;19924;-83
2023/12/03 09:26:03;;;;;;;;;;;;;;;5.61;nan;101970.38;5075322;28;20331;-83
2023/12/03 09:28:30;;;;;;;;;;;;;;;5.59;nan;101978.53;5075604;28;20036;-82
2023/12/03 09:30:56;;;;;;;;;;;;;;;5.58;nan;101978.72;5076999;28;19920;-83
2023/12/03 09:33:21;;;;;;;;;;;;;;;5.59;nan;101975.06;5073727;28;20308;-83
2023/12/03 09:35:46;;;;;;;;;;;;;;;5.61;nan;101970.38;5075222;28;19933;-82
2023/12/03 09:38:12;;;;;;;;;;;;;;;5.65;nan;101972.47;5074663;28;20548;-82
2023/12/03 09:40:37;;;;;;;;;;;;;;;5.72;nan;101970.69;5072257;28;20587;-83
2023/12/03 09:43:04;;;;;;;;;;;;;;;5.78;nan;101971.81;5077821;28;19923;-82
2023/12/03 09:45:31;;;;;;;;;;;;;;;5.80;nan;101974.28;5074879;28;20675;-82
2023/12/03 09:48:01;;;;;;;;;;;;;;;5.90;nan;101972.16;5076221;28;20200;-83
2023/12/03 09:50:28;;;;;;;;;;;;;;;5.89;nan;101970.50;5081025;28;19959;-82
2023/12/03 09:52:55;;;;;;;;;;;;;;;5.91;nan;101979.13;5081083;28;19924;-83
2023/12/03 09:55:21;;;;;;;;;;;;;;;5.89;nan;101979.28;5081610;28;19924;-82
2023/12/03 09:57:48;;;;;;;;;;;;;;;5.89;nan;101981.94;5080276;28;19924;-82
2023/12/03 10:00:14;;;;;;;;;;;;;;;5.92;nan;101984.25;5081402;28;19931;-82
2023/12/03 10:02:39;;;;;;;;;;;;;;;5.93;nan;101987.78;5080976;28;20516;-82
2023/12/03 10:05:05;;;;;;;;;;;;;;;5.95;nan;101985.75;5080073;28;20641;-82
2023/12/03 10:07:30;;;;;;;;;;;;;;;5.95;nan;101983.09;5078676;28;20353;-82
2023/12/03 10:10:00;;;;;;;;;;;;;;;5.96;nan;101979.41;5080981;28;19920;-82
2023/12/03 10:12:28;;;;;;;;;;;;;;;5.98;nan;101980.06;5079869;28;21215;-83
2023/12/03 10:14:54;;;;;;;;;;;;;;;6.00;nan;101975.38;5081498;28;20007;-83
2023/12/03 10:17:22;;;;;;;;;;;;;;;6.06;nan;101983.41;5079109;28;20004;-83
2023/12/03 10:19:47;;;;;;;;;;;;;;;6.12;nan;101979.19;5070560;28;19933;-82
2023/12/03 10:22:13;;;;;;;;;;;;;;;6.17;nan;101976.78;5079958;28;21090;-83
2023/12/03 10:24:48;;;;;;;;;;;;;;;6.18;nan;101981.09;5081391;28;19986;-82
2023/12/03 10:27:13;;;;;;;;;;;;;;;6.20;nan;101987.03;5080083;28;20406;-82
2023/12/03 10:29:39;;;;;;;;;;;;;;;6.16;nan;101990.28;5079623;28;19924;-82
2023/12/03 10:32:06;;;;;;;;;;;;;;;6.15;nan;101985.97;5081765;28;19924;-83
2023/12/03 10:34:31;;;;;;;;;;;;;;;6.18;nan;101996.22;5077688;28;19920;-82
2023/12/03 10:36:57;;;;;;;;;;;;;;;6.17;nan;101992.75;5080441;28;19931;-82
2023/12/03 10:39:22;;;;;;;;;;;;;;;6.21;nan;101993.19;5079028;28;19931;-82
2023/12/03 10:41:49;;;;;;;;;;;;;;;6.22;nan;101993.00;5080843;28;19977;-86
2023/12/03 10:44:24;;;;;;;;;;;;;;;6.22;nan;101994.84;5081248;28;20384;-82
2023/12/03 10:46:55;;;;;;;;;;;;;;;6.21;nan;101993.19;5078990;28;19947;-82
2023/12/03 10:49:21;;;;;;;;;;;;;;;6.18;nan;101991.72;5080193;28;19924;-82
2023/12/03 10:51:47;;;;;;;;;;;;;;;6.21;nan;101996.69;5076680;28;19923;-82
2023/12/03 10:54:13;;;;;;;;;;;;;;;6.23;nan;101994.66;5079793;28;19978;-82
2023/12/03 10:56:39;;;;;;;;;;;;;;;6.20;nan;101999.53;5079485;28;19930;-82
2023/12/03 10:59:09;;;;;;;;;;;;;;;6.17;nan;101998.06;5078457;28;19923;-82
2023/12/03 11:01:37;;;;;;;;;;;;;;;6.16;nan;101996.44;5077025;28;19928;-83
2023/12/03 11:04:08;;;;;;;;;;;;;;;6.16;nan;101990.28;5078875;28;19924;-82
2023/12/03 11:06:34;;;;;;;;;;;;;;;6.20;nan;102003.00;5079019;28;20002;-82
2023/12/03 11:09:00;;;;;;;;;;;;;;;6.20;nan;102013.66;5078034;28;20404;-82
2023/12/03 11:11:25;;;;;;;;;;;;;;;6.24;nan;102004.28;5078021;28;19931;-82
2023/12/03 11:13:52;;;;;;;;;;;;;;;6.23;nan;102002.63;5079975;28;19990;-82
2023/12/03 11:16:18;;;;;;;;;;;;;;;6.25;nan;101997.94;5076399;28;20557;-82
2023/12/03 11:18:56;;;;;;;;;;;;;;;6.28;nan;101999.38;5076895;28;19925;-82
2023/12/03 11:21:37;;;;;;;;;;;;;;;6.29;nan;102011.72;5078702;28;19943;-82
2023/12/03 11:24:35;;;;;;;;;;;;;;;6.26;nan;102015.56;5077220;28;19920;-82
2023/12/03 11:27:00;;;;;;;;;;;;;;;6.22;nan;102011.63;5055029;28;19924;-82
2023/12/03 11:29:48;;;;;;;;;;;;;;;6.23;nan;102013.28;5077806;28;19924;-83
2023/12/03 11:32:14;;;;;;;;;;;;;;;6.20;nan;102020.81;5078289;28;19924;-82
2023/12/03 11:34:39;;;;;;;;;;;;;;;6.19;nan;102021.84;5073737;28;19977;-82
2023/12/03 11:37:07;;;;;;;;;;;;;;;6.16;nan;102027.53;5076240;28;19924;-82
2023/12/03 11:39:33;;;;;;;;;;;;;;;6.16;nan;102023.03;5075283;28;19928;-82
2023/12/03 11:42:03;;;;;;;;;;;;;;;6.16;nan;102028.34;5078280;28;19920;-82
2023/12/03 11:44:28;;;;;;;;;;;;;;;6.21;nan;102036.59;5082333;28;19970;-82
2023/12/03 11:47:09;;;;;;;;;;;;;;;6.27;nan;102041.16;5083382;28;20007;-82
2023/12/03 11:49:38;;;;;;;;;;;;;;;6.33;nan;102048.41;5087664;28;20401;-82
2023/12/03 11:52:04;;;;;;;;;;;;;;;6.31;nan;102045.13;5085394;28;19924;-82
2023/12/03 11:54:48;;;;;;;;;;;;;;;6.32;nan;102054.75;5065840;28;19920;-82
2023/12/03 11:57:14;;;;;;;;;;;;;;;6.31;nan;102058.44;5082673;28;19982;-82
2023/12/03 11:59:40;;;;;;;;;;;;;;;6.31;nan;102058.44;5099836;27;19924;-82
2023/12/03 12:02:05;;;;;;;;;;;;;;;6.27;nan;102059.78;5081871;28;19929;-82
2023/12/03 12:04:31;;;;;;;;;;;;;;;6.28;nan;102063.28;5090485;28;19919;-82
2023/12/03 12:06:57;;;;;;;;;;;;;;;6.26;nan;102054.66;5078702;28;20909;-82
2023/12/03 12:09:23;;;;;;;;;;;;;;;6.27;nan;102046.47;5077015;28;19924;-82
2023/12/03 12:11:51;;;;;;;;;;;;;;;6.24;nan;102056.69;5075745;28;19951;-82
2023/12/03 12:14:17;;;;;;;;;;;;;;;6.22;nan;102054.22;5076733;28;19924;-82
2023/12/03 12:16:42;;;;;;;;;;;;;;;6.23;nan;102061.19;5076934;28;19924;-82
2023/12/03 12:19:08;;;;;;;;;;;;;;;6.22;nan;102062.19;5082611;28;20295;-82
2023/12/03 12:21:33;;;;;;;;;;;;;;;6.23;nan;102068.34;5085497;28;20415;-82
2023/12/03 12:23:59;;;;;;;;;;;;;;;6.20;nan;102071.38;5091140;28;19958;-82
2023/12/03 12:26:24;;;;;;;;;;;;;;;6.20;nan;102068.72;5090806;28;19920;-82
2023/12/03 12:28:49;;;;;;;;;;;;;;;6.26;nan;102068.78;5077722;28;20307;-82
2023/12/03 12:31:18;;;;;;;;;;;;;;;6.32;nan;102075.22;5092794;28;19916;-82
2023/12/03 12:33:43;;;;;;;;;;;;;;;6.38;nan;102073.63;5088165;28;19967;-82
2023/12/03 12:36:09;;;;;;;;;;;;;;;6.46;nan;102081.50;5086894;28;19959;-82
2023/12/03 12:38:41;;;;;;;;;;;;;;;6.51;nan;102074.63;5084097;28;19932;-82
2023/12/03 12:41:06;;;;;;;;;;;;;;;6.56;nan;102072.19;5090343;28;20819;-82
2023/12/03 12:43:31;;;;;;;;;;;;;;;6.63;nan;102082.91;5085853;28;20037;-82
2023/12/03 12:46:04;;;;;;;;;;;;;;;6.68;nan;102077.84;5096242;28;20576;-81
2023/12/03 12:48:30;;;;;;;;;;;;;;;6.71;nan;102082.81;5084157;28;19916;-82
2023/12/03 12:50:56;;;;;;;;;;;;;;;6.70;nan;102086.47;5089842;28;19920;-82
2023/12/03 12:53:21;;;;;;;;;;;;;;;6.68;nan;102088.50;5082699;28;19920;-82
2023/12/03 12:55:47;;;;;;;;;;;;;;;6.70;nan;102094.47;5084134;28;20439;-82
2023/12/03 12:58:12;;;;;;;;;;;;;;;6.71;nan;102093.44;5083075;28;19962;-82
2023/12/03 13:00:37;;;;;;;;;;;;;;;6.66;nan;102090.53;5088846;28;19934;-82